sensor_id;sensor_type;location;lat;lon;timestamp;temperature;humidity
975;DHT22;6115;49.296;10.602;2023-12-22T00:02:41;3.70;74.00
975;DHT22;6115;49.296;10.602;2023-12-22T00:07:42;3.60;74.90
975;DHT22;6115;49.296;10.602;2023-12-22T00:12:42;3.60;75.80
975;DHT22;6115;49.296;10.602;2023-12-22T00:17:43;3.40;76.60
975;DHT22;6115;49.296;10.602;2023-12-22T00:22:43;3.30;77.40
975;DHT22;6115;49.296;10.602;2023-12-22T00:27:44;3.40;78.10
975;DHT22;6115;49.296;10.602;2023-12-22T00:32:44;3.40;78.10
975;DHT22;6115;49.296;10.602;2023-12-22T00:37:45;3.40;78.30
975;DHT22;6115;49.296;10.602;2023-12-22T00:42:45;3.40;78.40
975;DHT22;6115;49.296;10.602;2023-12-22T00:47:46;3.30;78.30
975;DHT22;6115;49.296;10.602;2023-12-22T00:52:46;3.30;78.30
975;DHT22;6115;49.296;10.602;2023-12-22T00:57:47;3.30;78.60
975;DHT22;6115;49.296;10.602;2023-12-22T01:02:48;3.30;78.70
975;DHT22;6115;49.296;10.602;2023-12-22T01:07:48;3.30;78.90
975;DHT22;6115;49.296;10.602;2023-12-22T01:12:49;3.40;79.20
975;DHT22;6115;49.296;10.602;2023-12-22T01:17:49;3.30;78.50
975;DHT22;6115;49.296;10.602;2023-12-22T01:22:50;3.30;78.30
975;DHT22;6115;49.296;10.602;2023-12-22T01:27:50;3.40;78.40
975;DHT22;6115;49.296;10.602;2023-12-22T01:32:52;3.30;78.30
975;DHT22;6115;49.296;10.602;2023-12-22T01:37:53;3.30;78.40
975;DHT22;6115;49.296;10.602;2023-12-22T01:42:54;3.30;78.60
975;DHT22;6115;49.296;10.602;2023-12-22T01:47:55;3.20;78.90
975;DHT22;6115;49.296;10.602;2023-12-22T01:52:56;3.30;79.10
975;DHT22;6115;49.296;10.602;2023-12-22T01:57:57;3.20;79.20
975;DHT22;6115;49.296;10.602;2023-12-22T02:02:57;3.30;79.50
975;DHT22;6115;49.296;10.602;2023-12-22T02:07:58;3.30;79.60
975;DHT22;6115;49.296;10.602;2023-12-22T02:12:59;3.40;79.80
975;DHT22;6115;49.296;10.602;2023-12-22T02:18:23;3.40;79.80
975;DHT22;6115;49.296;10.602;2023-12-22T02:23:25;3.50;79.90
975;DHT22;6115;49.296;10.602;2023-12-22T02:28:25;3.50;79.80
975;DHT22;6115;49.296;10.602;2023-12-22T02:33:28;3.50;80.40
975;DHT22;6115;49.296;10.602;2023-12-22T02:38:30;3.40;80.60
975;DHT22;6115;49.296;10.602;2023-12-22T02:43:32;3.30;81.20
975;DHT22;6115;49.296;10.602;2023-12-22T02:48:33;3.20;81.60
975;DHT22;6115;49.296;10.602;2023-12-22T02:53:33;3.20;82.20
975;DHT22;6115;49.296;10.602;2023-12-22T02:58:34;3.30;82.60
975;DHT22;6115;49.296;10.602;2023-12-22T03:03:34;3.20;82.50
975;DHT22;6115;49.296;10.602;2023-12-22T03:08:35;3.20;82.80
975;DHT22;6115;49.296;10.602;2023-12-22T03:13:35;3.30;83.00
975;DHT22;6115;49.296;10.602;2023-12-22T03:18:38;3.30;83.00
975;DHT22;6115;49.296;10.602;2023-12-22T03:23:39;3.30;82.90
975;DHT22;6115;49.296;10.602;2023-12-22T03:28:40;3.30;83.00
975;DHT22;6115;49.296;10.602;2023-12-22T03:33:40;3.20;82.90
975;DHT22;6115;49.296;10.602;2023-12-22T03:38:41;3.00;82.70
975;DHT22;6115;49.296;10.602;2023-12-22T03:43:41;2.90;82.50
975;DHT22;6115;49.296;10.602;2023-12-22T03:48:42;2.80;81.50
975;DHT22;6115;49.296;10.602;2023-12-22T03:53:42;2.70;81.30
975;DHT22;6115;49.296;10.602;2023-12-22T03:58:43;2.70;81.10
975;DHT22;6115;49.296;10.602;2023-12-22T04:03:43;2.70;81.50
975;DHT22;6115;49.296;10.602;2023-12-22T04:08:44;2.90;81.10
975;DHT22;6115;49.296;10.602;2023-12-22T04:13:44;2.80;80.50
975;DHT22;6115;49.296;10.602;2023-12-22T04:18:45;2.90;80.40
975;DHT22;6115;49.296;10.602;2023-12-22T04:23:45;3.00;80.60
975;DHT22;6115;49.296;10.602;2023-12-22T04:28:46;3.00;80.60
975;DHT22;6115;49.296;10.602;2023-12-22T04:33:46;3.00;80.60
975;DHT22;6115;49.296;10.602;2023-12-22T04:38:47;3.10;80.70
975;DHT22;6115;49.296;10.602;2023-12-22T04:43:48;3.10;80.90
975;DHT22;6115;49.296;10.602;2023-12-22T04:48:48;3.20;81.10
975;DHT22;6115;49.296;10.602;2023-12-22T04:53:49;3.10;80.90
975;DHT22;6115;49.296;10.602;2023-12-22T04:58:49;3.10;81.00
975;DHT22;6115;49.296;10.602;2023-12-22T05:03:50;3.10;81.20
975;DHT22;6115;49.296;10.602;2023-12-22T05:08:51;2.90;81.50
975;DHT22;6115;49.296;10.602;2023-12-22T05:13:52;2.70;81.30
975;DHT22;6115;49.296;10.602;2023-12-22T05:18:52;2.70;81.60
975;DHT22;6115;49.296;10.602;2023-12-22T05:23:53;2.30;81.50
975;DHT22;6115;49.296;10.602;2023-12-22T05:28:54;2.30;82.00
975;DHT22;6115;49.296;10.602;2023-12-22T05:33:54;2.40;82.80
975;DHT22;6115;49.296;10.602;2023-12-22T05:38:55;2.40;83.10
975;DHT22;6115;49.296;10.602;2023-12-22T05:43:55;2.50;83.40
975;DHT22;6115;49.296;10.602;2023-12-22T05:48:56;2.60;84.10
975;DHT22;6115;49.296;10.602;2023-12-22T05:53:59;2.70;83.40
975;DHT22;6115;49.296;10.602;2023-12-22T05:59:00;2.80;83.40
975;DHT22;6115;49.296;10.602;2023-12-22T06:04:01;3.00;83.20
975;DHT22;6115;49.296;10.602;2023-12-22T06:09:01;3.20;82.80
975;DHT22;6115;49.296;10.602;2023-12-22T06:14:02;3.30;83.00
975;DHT22;6115;49.296;10.602;2023-12-22T06:19:02;3.50;83.20
975;DHT22;6115;49.296;10.602;2023-12-22T06:24:03;3.70;83.30
975;DHT22;6115;49.296;10.602;2023-12-22T06:29:04;3.80;83.20
975;DHT22;6115;49.296;10.602;2023-12-22T06:34:04;3.90;83.10
975;DHT22;6115;49.296;10.602;2023-12-22T06:39:05;3.90;82.70
975;DHT22;6115;49.296;10.602;2023-12-22T06:44:05;3.90;82.60
975;DHT22;6115;49.296;10.602;2023-12-22T06:49:06;4.00;82.40
975;DHT22;6115;49.296;10.602;2023-12-22T06:54:07;3.90;82.40
975;DHT22;6115;49.296;10.602;2023-12-22T06:59:07;3.80;82.40
975;DHT22;6115;49.296;10.602;2023-12-22T07:04:12;3.80;82.60
975;DHT22;6115;49.296;10.602;2023-12-22T07:14:17;3.90;83.50
975;DHT22;6115;49.296;10.602;2023-12-22T07:19:17;3.90;83.00
975;DHT22;6115;49.296;10.602;2023-12-22T07:24:18;3.90;82.80
975;DHT22;6115;49.296;10.602;2023-12-22T07:29:19;3.90;82.00
975;DHT22;6115;49.296;10.602;2023-12-22T07:34:20;4.00;81.40
975;DHT22;6115;49.296;10.602;2023-12-22T07:39:22;4.00;81.20
975;DHT22;6115;49.296;10.602;2023-12-22T07:44:23;4.00;80.70
975;DHT22;6115;49.296;10.602;2023-12-22T07:49:24;3.90;80.50
975;DHT22;6115;49.296;10.602;2023-12-22T07:54:25;4.00;80.70
975;DHT22;6115;49.296;10.602;2023-12-22T07:59:26;4.00;80.60
975;DHT22;6115;49.296;10.602;2023-12-22T08:04:26;4.10;80.60
975;DHT22;6115;49.296;10.602;2023-12-22T08:09:27;4.20;80.40
975;DHT22;6115;49.296;10.602;2023-12-22T08:14:28;4.30;79.90
975;DHT22;6115;49.296;10.602;2023-12-22T08:19:28;4.40;79.30
975;DHT22;6115;49.296;10.602;2023-12-22T08:24:29;4.60;78.20
975;DHT22;6115;49.296;10.602;2023-12-22T08:29:29;4.70;77.10
975;DHT22;6115;49.296;10.602;2023-12-22T08:34:30;4.70;76.20
975;DHT22;6115;49.296;10.602;2023-12-22T08:39:30;4.80;75.70
975;DHT22;6115;49.296;10.602;2023-12-22T08:44:31;4.80;75.00
975;DHT22;6115;49.296;10.602;2023-12-22T08:49:32;4.80;74.60
975;DHT22;6115;49.296;10.602;2023-12-22T08:54:32;5.10;74.30
975;DHT22;6115;49.296;10.602;2023-12-22T08:59:34;5.30;73.50
975;DHT22;6115;49.296;10.602;2023-12-22T09:04:35;5.20;74.20
975;DHT22;6115;49.296;10.602;2023-12-22T09:09:35;5.10;75.30
975;DHT22;6115;49.296;10.602;2023-12-22T09:14:36;5.10;77.90
975;DHT22;6115;49.296;10.602;2023-12-22T09:19:36;5.10;77.50
975;DHT22;6115;49.296;10.602;2023-12-22T09:24:39;5.20;78.20
975;DHT22;6115;49.296;10.602;2023-12-22T09:29:39;5.30;78.60
975;DHT22;6115;49.296;10.602;2023-12-22T09:34:40;5.30;78.60
975;DHT22;6115;49.296;10.602;2023-12-22T09:39:41;5.40;79.20
975;DHT22;6115;49.296;10.602;2023-12-22T09:44:42;5.50;78.60
975;DHT22;6115;49.296;10.602;2023-12-22T09:49:43;5.60;77.80
975;DHT22;6115;49.296;10.602;2023-12-22T09:54:45;5.70;76.50
975;DHT22;6115;49.296;10.602;2023-12-22T09:59:48;5.80;75.90
975;DHT22;6115;49.296;10.602;2023-12-22T10:04:51;5.90;76.00
975;DHT22;6115;49.296;10.602;2023-12-22T10:09:52;6.00;75.00
975;DHT22;6115;49.296;10.602;2023-12-22T10:14:54;6.10;75.30
975;DHT22;6115;49.296;10.602;2023-12-22T10:19:55;6.00;75.10
975;DHT22;6115;49.296;10.602;2023-12-22T10:24:55;5.80;74.50
975;DHT22;6115;49.296;10.602;2023-12-22T10:29:56;5.60;74.10
975;DHT22;6115;49.296;10.602;2023-12-22T10:34:57;5.50;73.70
975;DHT22;6115;49.296;10.602;2023-12-22T10:39:58;5.20;74.60
975;DHT22;6115;49.296;10.602;2023-12-22T10:44:58;5.10;76.10
975;DHT22;6115;49.296;10.602;2023-12-22T10:50:05;5.00;77.30
975;DHT22;6115;49.296;10.602;2023-12-22T10:55:06;5.10;78.50
975;DHT22;6115;49.296;10.602;2023-12-22T11:00:08;5.00;79.60
975;DHT22;6115;49.296;10.602;2023-12-22T11:05:10;5.10;80.20
975;DHT22;6115;49.296;10.602;2023-12-22T11:10:12;5.20;81.60
975;DHT22;6115;49.296;10.602;2023-12-22T11:15:14;5.30;82.30
975;DHT22;6115;49.296;10.602;2023-12-22T11:20:15;5.50;82.90
975;DHT22;6115;49.296;10.602;2023-12-22T11:25:17;5.60;82.70
975;DHT22;6115;49.296;10.602;2023-12-22T11:30:19;5.70;83.00
975;DHT22;6115;49.296;10.602;2023-12-22T11:35:25;5.60;82.90
975;DHT22;6115;49.296;10.602;2023-12-22T11:40:27;5.60;82.80
975;DHT22;6115;49.296;10.602;2023-12-22T11:45:30;5.60;83.40
975;DHT22;6115;49.296;10.602;2023-12-22T11:50:31;5.70;83.30
975;DHT22;6115;49.296;10.602;2023-12-22T11:55:59;5.80;83.30
975;DHT22;6115;49.296;10.602;2023-12-22T12:01:01;5.90;83.20
975;DHT22;6115;49.296;10.602;2023-12-22T12:11:13;6.00;83.10
975;DHT22;6115;49.296;10.602;2023-12-22T12:16:15;6.10;82.70
975;DHT22;6115;49.296;10.602;2023-12-22T12:21:19;6.10;82.20
975;DHT22;6115;49.296;10.602;2023-12-22T12:26:20;6.20;82.30
975;DHT22;6115;49.296;10.602;2023-12-22T12:31:35;6.20;81.60
975;DHT22;6115;49.296;10.602;2023-12-22T12:36:39;6.20;81.30
975;DHT22;6115;49.296;10.602;2023-12-22T12:41:41;6.30;81.10
975;DHT22;6115;49.296;10.602;2023-12-22T12:46:44;6.20;81.20
975;DHT22;6115;49.296;10.602;2023-12-22T12:51:47;6.30;81.10
975;DHT22;6115;49.296;10.602;2023-12-22T12:56:48;6.30;81.10
975;DHT22;6115;49.296;10.602;2023-12-22T13:01:49;6.30;81.10
975;DHT22;6115;49.296;10.602;2023-12-22T13:06:50;6.40;81.60
975;DHT22;6115;49.296;10.602;2023-12-22T13:11:51;6.40;81.90
975;DHT22;6115;49.296;10.602;2023-12-22T13:16:53;6.40;81.90
975;DHT22;6115;49.296;10.602;2023-12-22T13:21:57;6.40;82.10
975;DHT22;6115;49.296;10.602;2023-12-22T13:27:03;6.40;82.60
975;DHT22;6115;49.296;10.602;2023-12-22T13:32:07;6.30;82.80
975;DHT22;6115;49.296;10.602;2023-12-22T13:37:07;6.30;83.40
975;DHT22;6115;49.296;10.602;2023-12-22T13:42:17;6.40;83.60
975;DHT22;6115;49.296;10.602;2023-12-22T13:47:19;6.40;83.70
975;DHT22;6115;49.296;10.602;2023-12-22T13:52:30;6.30;84.00
975;DHT22;6115;49.296;10.602;2023-12-22T13:57:32;6.40;85.00
975;DHT22;6115;49.296;10.602;2023-12-22T14:02:33;6.40;85.80
975;DHT22;6115;49.296;10.602;2023-12-22T14:07:35;6.40;86.30
975;DHT22;6115;49.296;10.602;2023-12-22T14:12:37;6.50;86.60
975;DHT22;6115;49.296;10.602;2023-12-22T14:17:40;6.60;87.40
975;DHT22;6115;49.296;10.602;2023-12-22T14:22:44;6.70;87.50
975;DHT22;6115;49.296;10.602;2023-12-22T14:27:44;6.70;87.40
975;DHT22;6115;49.296;10.602;2023-12-22T14:32:45;6.80;87.70
975;DHT22;6115;49.296;10.602;2023-12-22T14:37:45;6.80;87.80
975;DHT22;6115;49.296;10.602;2023-12-22T14:42:46;6.90;87.60
975;DHT22;6115;49.296;10.602;2023-12-22T14:47:47;6.90;87.30
975;DHT22;6115;49.296;10.602;2023-12-22T14:52:48;7.00;87.00
975;DHT22;6115;49.296;10.602;2023-12-22T14:57:48;6.90;86.60
975;DHT22;6115;49.296;10.602;2023-12-22T15:02:49;7.00;87.00
975;DHT22;6115;49.296;10.602;2023-12-22T15:07:49;7.00;87.40
975;DHT22;6115;49.296;10.602;2023-12-22T15:12:50;7.00;87.60
975;DHT22;6115;49.296;10.602;2023-12-22T15:17:50;7.00;87.70
975;DHT22;6115;49.296;10.602;2023-12-22T15:22:51;7.00;87.70
975;DHT22;6115;49.296;10.602;2023-12-22T15:27:52;7.10;87.60
975;DHT22;6115;49.296;10.602;2023-12-22T15:32:52;7.10;87.50
975;DHT22;6115;49.296;10.602;2023-12-22T15:37:53;7.20;87.10
975;DHT22;6115;49.296;10.602;2023-12-22T15:42:53;7.20;87.10
975;DHT22;6115;49.296;10.602;2023-12-22T15:47:54;7.20;86.60
975;DHT22;6115;49.296;10.602;2023-12-22T15:52:55;7.20;86.50
975;DHT22;6115;49.296;10.602;2023-12-22T15:57:55;7.30;86.00
975;DHT22;6115;49.296;10.602;2023-12-22T16:02:56;7.30;85.70
975;DHT22;6115;49.296;10.602;2023-12-22T16:07:56;7.30;85.60
975;DHT22;6115;49.296;10.602;2023-12-22T16:12:59;7.30;85.60
975;DHT22;6115;49.296;10.602;2023-12-22T16:17:59;7.30;85.50
975;DHT22;6115;49.296;10.602;2023-12-22T16:23:06;7.30;85.30
975;DHT22;6115;49.296;10.602;2023-12-22T16:28:06;7.30;85.60
975;DHT22;6115;49.296;10.602;2023-12-22T16:33:07;7.30;86.60
975;DHT22;6115;49.296;10.602;2023-12-22T16:38:08;7.20;86.60
975;DHT22;6115;49.296;10.602;2023-12-22T16:43:08;7.20;86.50
975;DHT22;6115;49.296;10.602;2023-12-22T16:48:09;7.30;86.70
975;DHT22;6115;49.296;10.602;2023-12-22T16:53:09;7.40;86.20
975;DHT22;6115;49.296;10.602;2023-12-22T16:58:10;7.40;85.50
975;DHT22;6115;49.296;10.602;2023-12-22T17:03:11;7.40;85.10
975;DHT22;6115;49.296;10.602;2023-12-22T17:08:11;7.40;84.80
975;DHT22;6115;49.296;10.602;2023-12-22T17:13:13;7.40;84.60
975;DHT22;6115;49.296;10.602;2023-12-22T17:18:14;7.40;84.60
975;DHT22;6115;49.296;10.602;2023-12-22T17:23:14;7.40;84.30
975;DHT22;6115;49.296;10.602;2023-12-22T17:28:15;7.50;84.10
975;DHT22;6115;49.296;10.602;2023-12-22T17:33:15;7.40;83.50
975;DHT22;6115;49.296;10.602;2023-12-22T17:38:16;7.50;83.20
975;DHT22;6115;49.296;10.602;2023-12-22T17:43:17;7.60;82.60
975;DHT22;6115;49.296;10.602;2023-12-22T17:48:17;7.60;82.30
975;DHT22;6115;49.296;10.602;2023-12-22T17:53:18;7.60;82.30
975;DHT22;6115;49.296;10.602;2023-12-22T17:58:19;7.70;81.60
975;DHT22;6115;49.296;10.602;2023-12-22T18:03:20;7.80;81.60
975;DHT22;6115;49.296;10.602;2023-12-22T18:08:20;7.80;82.20
975;DHT22;6115;49.296;10.602;2023-12-22T18:13:21;7.70;82.40
975;DHT22;6115;49.296;10.602;2023-12-22T18:18:21;7.70;82.40
975;DHT22;6115;49.296;10.602;2023-12-22T18:23:22;7.70;82.40
975;DHT22;6115;49.296;10.602;2023-12-22T18:28:23;7.70;82.80
975;DHT22;6115;49.296;10.602;2023-12-22T18:33:24;7.60;83.70
975;DHT22;6115;49.296;10.602;2023-12-22T18:38:27;7.60;84.50
975;DHT22;6115;49.296;10.602;2023-12-22T18:43:27;7.50;85.20
975;DHT22;6115;49.296;10.602;2023-12-22T18:48:28;7.50;85.10
975;DHT22;6115;49.296;10.602;2023-12-22T18:53:28;7.60;85.20
975;DHT22;6115;49.296;10.602;2023-12-22T18:58:29;7.40;85.30
975;DHT22;6115;49.296;10.602;2023-12-22T19:03:30;7.40;85.90
975;DHT22;6115;49.296;10.602;2023-12-22T19:08:31;7.50;86.50
975;DHT22;6115;49.296;10.602;2023-12-22T19:13:31;7.40;86.80
975;DHT22;6115;49.296;10.602;2023-12-22T19:18:32;7.40;86.80
975;DHT22;6115;49.296;10.602;2023-12-22T19:23:33;7.40;86.80
975;DHT22;6115;49.296;10.602;2023-12-22T19:28:33;7.40;86.70
975;DHT22;6115;49.296;10.602;2023-12-22T19:33:34;7.40;86.50
975;DHT22;6115;49.296;10.602;2023-12-22T19:38:34;7.40;86.40
975;DHT22;6115;49.296;10.602;2023-12-22T19:43:35;7.40;86.10
975;DHT22;6115;49.296;10.602;2023-12-22T19:48:36;7.40;85.90
975;DHT22;6115;49.296;10.602;2023-12-22T19:53:36;7.50;85.40
975;DHT22;6115;49.296;10.602;2023-12-22T19:58:37;7.50;84.70
975;DHT22;6115;49.296;10.602;2023-12-22T20:03:38;7.50;84.20
975;DHT22;6115;49.296;10.602;2023-12-22T20:08:38;7.50;84.40
975;DHT22;6115;49.296;10.602;2023-12-22T20:13:42;7.50;84.70
975;DHT22;6115;49.296;10.602;2023-12-22T20:18:42;7.50;84.70
975;DHT22;6115;49.296;10.602;2023-12-22T20:23:43;7.40;84.30
975;DHT22;6115;49.296;10.602;2023-12-22T20:28:44;7.40;84.40
975;DHT22;6115;49.296;10.602;2023-12-22T20:33:44;7.40;84.20
975;DHT22;6115;49.296;10.602;2023-12-22T20:38:45;7.40;84.70
975;DHT22;6115;49.296;10.602;2023-12-22T20:43:45;7.40;85.30
975;DHT22;6115;49.296;10.602;2023-12-22T20:48:46;7.40;84.20
975;DHT22;6115;49.296;10.602;2023-12-22T20:53:46;7.40;84.00
975;DHT22;6115;49.296;10.602;2023-12-22T20:58:47;7.40;83.50
975;DHT22;6115;49.296;10.602;2023-12-22T21:03:48;7.30;83.50
975;DHT22;6115;49.296;10.602;2023-12-22T21:08:48;7.30;83.90
975;DHT22;6115;49.296;10.602;2023-12-22T21:13:49;7.30;83.90
975;DHT22;6115;49.296;10.602;2023-12-22T21:18:49;7.30;83.20
975;DHT22;6115;49.296;10.602;2023-12-22T21:23:50;7.30;83.00
975;DHT22;6115;49.296;10.602;2023-12-22T21:28:51;7.30;82.00
975;DHT22;6115;49.296;10.602;2023-12-22T21:33:51;7.30;81.90
975;DHT22;6115;49.296;10.602;2023-12-22T21:38:53;7.30;81.40
975;DHT22;6115;49.296;10.602;2023-12-22T21:43:54;7.20;81.60
975;DHT22;6115;49.296;10.602;2023-12-22T21:48:54;7.30;81.00
975;DHT22;6115;49.296;10.602;2023-12-22T21:53:55;7.30;81.30
975;DHT22;6115;49.296;10.602;2023-12-22T21:58:56;7.40;81.10
975;DHT22;6115;49.296;10.602;2023-12-22T22:03:56;7.40;80.60
975;DHT22;6115;49.296;10.602;2023-12-22T22:08:57;7.30;80.00
975;DHT22;6115;49.296;10.602;2023-12-22T22:13:57;7.30;79.60
975;DHT22;6115;49.296;10.602;2023-12-22T22:18:58;7.30;79.20
975;DHT22;6115;49.296;10.602;2023-12-22T22:23:58;7.40;78.90
975;DHT22;6115;49.296;10.602;2023-12-22T22:28:59;7.40;78.90
975;DHT22;6115;49.296;10.602;2023-12-22T22:34:00;7.40;79.20
975;DHT22;6115;49.296;10.602;2023-12-22T22:39:01;7.30;79.80
975;DHT22;6115;49.296;10.602;2023-12-22T22:44:01;7.30;80.40
975;DHT22;6115;49.296;10.602;2023-12-22T22:49:02;7.20;81.70
975;DHT22;6115;49.296;10.602;2023-12-22T22:54:03;7.10;81.80
975;DHT22;6115;49.296;10.602;2023-12-22T22:59:04;7.00;81.30
975;DHT22;6115;49.296;10.602;2023-12-22T23:04:05;7.20;81.40
975;DHT22;6115;49.296;10.602;2023-12-22T23:09:06;7.10;81.00
975;DHT22;6115;49.296;10.602;2023-12-22T23:14:06;7.20;81.50
975;DHT22;6115;49.296;10.602;2023-12-22T23:19:07;7.20;81.00
975;DHT22;6115;49.296;10.602;2023-12-22T23:24:08;7.20;80.70
975;DHT22;6115;49.296;10.602;2023-12-22T23:29:08;7.20;80.20
975;DHT22;6115;49.296;10.602;2023-12-22T23:34:09;7.20;80.30
975;DHT22;6115;49.296;10.602;2023-12-22T23:39:10;7.10;79.70
975;DHT22;6115;49.296;10.602;2023-12-22T23:44:10;7.10;80.10
975;DHT22;6115;49.296;10.602;2023-12-22T23:49:11;7.10;80.30
975;DHT22;6115;49.296;10.602;2023-12-22T23:54:11;7.10;80.90
975;DHT22;6115;49.296;10.602;2023-12-22T23:59:12;7.10;80.70
